Time;durP1;ratioP1;P1;durP2;ratioP2;P2;SDS_P1;SDS_P2;PMS_P1;PMS_P2;Temp;Humidity;BMP_temperature;BMP_pressure;BME280_temperature;BME280_humidity;BME280_pressure;Samples;Min_cycle;Max_cycle;Signal;HPM_P1;HPM_P2
2024/01/12 00:01:47;;;;;;;11.30;8.50;;;;;;;20.51;28.03;100755.42;103298;1286;62512;-79
2024/01/12 00:04:15;;;;;;;11.90;8.70;;;;;;;20.51;28.04;100760.47;103306;1285;61556;-78
2024/01/12 00:06:41;;;;;;;11.70;8.10;;;;;;;20.50;27.91;100772.27;103215;1285;61334;-78
2024/01/12 00:09:07;;;;;;;11.40;8.40;;;;;;;20.50;27.99;100768.91;103182;1286;62750;-78
2024/01/12 00:11:33;;;;;;;11.10;8.50;;;;;;;20.50;27.95;100771.77;103185;1286;62527;-78
2024/01/12 00:13:58;;;;;;;12.00;8.50;;;;;;;20.51;27.81;100776.70;103261;1291;62084;-79
2024/01/12 00:16:25;;;;;;;12.10;9.10;;;;;;;20.50;28.07;100773.15;103540;1282;61304;-77
2024/01/12 00:18:52;;;;;;;11.80;8.70;;;;;;;20.50;27.94;100779.79;103625;1282;61483;-79
2024/01/12 00:21:17;;;;;;;11.40;8.20;;;;;;;20.51;27.94;100784.55;103409;1283;61371;-78
2024/01/12 00:23:43;;;;;;;11.90;8.60;;;;;;;20.52;27.98;100778.08;103380;1288;61385;-77
2024/01/12 00:26:09;;;;;;;11.70;8.90;;;;;;;20.52;27.80;100776.29;103586;1282;61464;-78
2024/01/12 00:28:35;;;;;;;11.20;8.30;;;;;;;20.51;27.89;100784.73;103361;1282;61757;-78
2024/01/12 00:31:01;;;;;;;11.20;8.50;;;;;;;20.52;28.07;100786.30;103363;1288;61412;-78
2024/01/12 00:33:27;;;;;;;12.10;8.70;;;;;;;20.52;28.04;100781.81;103429;1288;61397;-79
2024/01/12 00:35:53;;;;;;;11.70;8.20;;;;;;;20.53;27.88;100783.92;103661;1282;74427;-77
2024/01/12 00:38:19;;;;;;;10.90;8.30;;;;;;;20.53;27.85;100784.42;103623;1286;61480;-79
2024/01/12 00:40:45;;;;;;;11.70;8.80;;;;;;;20.53;27.89;100785.85;103386;1282;61477;-78
2024/01/12 00:43:10;;;;;;;12.30;9.00;;;;;;;20.53;27.94;100786.38;103616;1282;61985;-77
2024/01/12 00:45:38;;;;;;;11.40;9.00;;;;;;;20.54;27.99;100786.68;103266;1283;61392;-77
2024/01/12 00:48:05;;;;;;;11.80;8.60;;;;;;;20.54;27.97;100790.08;103392;1283;62657;-79
2024/01/12 00:50:31;;;;;;;12.00;8.40;;;;;;;20.54;28.01;100795.95;103374;1283;61375;-79
2024/01/12 00:52:56;;;;;;;11.60;8.60;;;;;;;20.54;27.92;100803.64;103357;1283;61382;-79
2024/01/12 00:55:22;;;;;;;14.00;9.50;;;;;;;20.55;27.99;100810.08;103384;1288;62554;-79
2024/01/12 00:57:48;;;;;;;11.60;9.20;;;;;;;20.54;27.95;100803.84;103653;1288;61486;-78
2024/01/12 01:00:14;;;;;;;12.20;9.10;;;;;;;20.54;27.83;100803.98;103314;1283;61319;-78
2024/01/12 01:02:40;;;;;;;12.40;9.20;;;;;;;20.54;27.74;100802.55;103408;1288;61345;-78
2024/01/12 01:05:06;;;;;;;12.30;9.20;;;;;;;20.55;27.96;100802.19;103388;1283;62560;-78
2024/01/12 01:07:32;;;;;;;11.30;8.90;;;;;;;20.55;27.83;100803.22;103328;1286;61424;-80
2024/01/12 01:09:57;;;;;;;12.30;9.00;;;;;;;20.55;27.86;100807.30;103375;1288;62583;-78
2024/01/12 01:12:25;;;;;;;12.20;8.70;;;;;;;20.55;27.80;100808.23;103260;1289;62299;-78
2024/01/12 01:14:50;;;;;;;12.60;9.00;;;;;;;20.55;27.77;100805.17;103411;1288;61915;-79
2024/01/12 01:17:17;;;;;;;12.30;9.50;;;;;;;20.56;27.89;100802.08;103364;1288;62509;-77
2024/01/12 01:19:43;;;;;;;13.10;9.20;;;;;;;20.56;27.84;100793.35;103320;1289;62097;-77
2024/01/12 01:22:09;;;;;;;14.00;9.70;;;;;;;20.56;27.86;100792.28;103347;1288;61473;-78
2024/01/12 01:24:35;;;;;;;13.80;9.00;;;;;;;20.56;27.84;100797.45;103383;1286;61378;-79
2024/01/12 01:27:00;;;;;;;12.40;9.40;;;;;;;20.57;27.78;100797.91;103237;1282;62493;-78
2024/01/12 01:29:27;;;;;;;12.30;9.20;;;;;;;20.57;27.85;100802.36;103350;1283;61362;-78
2024/01/12 01:31:52;;;;;;;13.20;9.10;;;;;;;20.57;27.70;100801.29;103371;1286;62098;-78
2024/01/12 01:34:18;;;;;;;13.50;8.90;;;;;;;20.58;27.77;100801.23;103236;1282;61364;-79
2024/01/12 01:36:44;;;;;;;12.60;9.40;;;;;;;20.58;27.73;100797.66;103356;1282;61374;-79
2024/01/12 01:39:10;;;;;;;14.40;9.80;;;;;;;20.57;27.84;100794.30;103435;1282;61403;-78
2024/01/12 01:41:35;;;;;;;13.20;9.60;;;;;;;20.58;27.80;100792.80;103362;1287;75231;-78
2024/01/12 01:44:01;;;;;;;12.20;8.90;;;;;;;20.58;27.90;100793.88;103260;1283;61810;-80
2024/01/12 01:46:28;;;;;;;12.10;9.60;;;;;;;20.58;27.83;100800.51;103417;1288;62686;-78
2024/01/12 01:48:53;;;;;;;12.70;9.70;;;;;;;20.58;27.61;100797.81;103263;1288;61356;-78
2024/01/12 01:51:19;;;;;;;12.80;8.90;;;;;;;20.58;27.80;100798.70;103518;1289;61459;-79
2024/01/12 01:53:45;;;;;;;13.70;9.80;;;;;;;20.59;27.78;100803.16;103617;1288;62579;-79
2024/01/12 01:56:11;;;;;;;12.60;9.60;;;;;;;20.59;27.85;100803.33;103358;1283;62479;-79
2024/01/12 01:58:37;;;;;;;13.50;9.40;;;;;;;20.59;27.64;100797.40;103434;1287;62335;-78
2024/01/12 02:01:03;;;;;;;13.00;9.80;;;;;;;20.59;27.85;100792.02;103607;1287;72877;-77
2024/01/12 02:03:28;;;;;;;14.30;9.30;;;;;;;20.60;27.77;100789.88;103190;1291;61397;-79
2024/01/12 02:05:54;;;;;;;12.90;9.70;;;;;;;20.59;27.57;100790.05;103087;1291;61313;-78
2024/01/12 02:08:20;;;;;;;13.40;9.70;;;;;;;20.60;27.68;100800.93;103167;1285;61366;-77
2024/01/12 02:10:46;;;;;;;13.90;9.30;;;;;;;20.60;27.65;100808.05;103150;1285;62389;-78
2024/01/12 02:13:11;;;;;;;12.80;9.20;;;;;;;20.61;27.80;100812.52;103139;1286;61326;-81
2024/01/12 02:15:37;;;;;;;13.30;10.10;;;;;;;20.60;27.69;100812.55;102680;1286;74382;-78
2024/01/12 02:18:03;;;;;;;13.90;10.10;;;;;;;20.60;27.86;100821.65;103141;1285;61379;-78
2024/01/12 02:20:29;;;;;;;15.30;10.00;;;;;;;20.61;27.70;100828.20;103142;1291;61447;-78
2024/01/12 02:22:54;;;;;;;13.70;10.20;;;;;;;20.61;27.66;100830.36;103123;1287;61458;-81
2024/01/12 02:25:20;;;;;;;14.00;9.30;;;;;;;20.61;27.74;100834.46;103167;1285;61467;-80
2024/01/12 02:27:46;;;;;;;12.40;9.30;;;;;;;20.61;27.75;100839.64;103199;1291;61393;-78
2024/01/12 02:30:12;;;;;;;15.00;10.00;;;;;;;20.61;27.67;100842.14;103204;1289;61973;-77
2024/01/12 02:32:38;;;;;;;13.60;10.20;;;;;;;20.61;27.74;100837.69;103029;1292;61378;-80
2024/01/12 02:35:04;;;;;;;12.70;9.80;;;;;;;20.62;27.82;100839.27;103352;1289;62559;-78
2024/01/12 02:37:30;;;;;;;11.50;9.30;;;;;;;20.62;27.65;100837.86;103390;1287;62366;-77
2024/01/12 02:39:57;;;;;;;14.40;10.20;;;;;;;20.62;27.67;100836.95;103200;1283;61358;-78
2024/01/12 02:42:22;;;;;;;13.40;10.10;;;;;;;20.62;27.78;100838.69;103282;1283;62720;-79
2024/01/12 02:44:48;;;;;;;14.20;10.20;;;;;;;20.62;27.62;100835.48;103437;1283;61444;-79
2024/01/12 02:47:14;;;;;;;12.90;9.80;;;;;;;20.62;27.61;100834.59;103437;1288;62749;-78
2024/01/12 02:49:39;;;;;;;14.60;11.00;;;;;;;20.62;27.56;100835.84;103253;1283;74338;-78
2024/01/12 02:52:05;;;;;;;15.20;10.50;;;;;;;20.63;27.63;100839.55;103434;1283;61326;-77
2024/01/12 02:54:32;;;;;;;14.60;10.20;;;;;;;20.63;27.75;100843.85;103306;1289;61552;-80
2024/01/12 02:56:58;;;;;;;12.70;9.70;;;;;;;20.63;27.62;100845.29;103289;1286;61490;-79
2024/01/12 02:59:24;;;;;;;13.10;9.50;;;;;;;20.63;27.65;100848.87;103318;1291;61368;-77
2024/01/12 03:01:50;;;;;;;16.00;10.80;;;;;;;20.63;27.61;100848.98;103122;1292;62668;-78
2024/01/12 03:04:16;;;;;;;12.60;9.80;;;;;;;20.63;27.70;100855.96;103330;1291;62444;-78
2024/01/12 03:06:42;;;;;;;15.40;10.80;;;;;;;20.64;27.67;100858.98;103282;1286;62836;-78
2024/01/12 03:09:08;;;;;;;13.70;10.10;;;;;;;20.64;27.69;100845.88;103207;1292;62024;-78
2024/01/12 03:11:33;;;;;;;13.40;9.90;;;;;;;20.65;27.63;100850.70;103117;1292;74494;-78
2024/01/12 03:13:59;;;;;;;15.00;10.60;;;;;;;20.64;27.69;100854.10;103141;1286;62566;-78
2024/01/12 03:16:25;;;;;;;15.40;10.60;;;;;;;20.64;27.77;100853.39;103218;1292;61349;-78
2024/01/12 03:18:51;;;;;;;15.10;10.40;;;;;;;20.64;27.65;100852.33;103145;1286;61416;-77
2024/01/12 03:21:17;;;;;;;15.40;10.50;;;;;;;20.64;27.59;100852.67;103151;1291;61389;-78
2024/01/12 03:23:42;;;;;;;14.50;10.60;;;;;;;20.64;27.70;100852.48;103302;1285;61304;-78
2024/01/12 03:26:08;;;;;;;15.40;10.40;;;;;;;20.64;27.54;100850.54;103205;1283;61465;-79
2024/01/12 03:28:37;;;;;;;15.00;10.50;;;;;;;20.65;27.55;100854.79;103398;1288;62529;-78
2024/01/12 03:31:03;;;;;;;15.40;10.90;;;;;;;20.66;27.64;100855.27;103383;1288;72467;-78
2024/01/12 03:33:28;;;;;;;16.60;10.40;;;;;;;20.66;27.50;100858.65;103360;1283;62640;-79
2024/01/12 03:35:55;;;;;;;13.50;10.30;;;;;;;20.66;27.59;100862.04;103405;1288;61432;-79
2024/01/12 03:38:21;;;;;;;14.30;10.40;;;;;;;20.66;27.55;100864.89;103613;1285;61345;-79
2024/01/12 03:40:48;;;;;;;14.60;10.50;;;;;;;20.66;27.55;100866.64;103392;1283;62545;-80
2024/01/12 03:43:13;;;;;;;14.20;10.10;;;;;;;20.67;27.58;100874.88;103312;1291;61484;-77
2024/01/12 03:45:39;;;;;;;15.10;10.80;;;;;;;20.67;27.50;100875.38;103605;1287;62585;-80
2024/01/12 03:48:06;;;;;;;15.80;10.80;;;;;;;20.67;27.47;100878.25;103374;1289;61362;-78
2024/01/12 03:50:32;;;;;;;14.40;10.90;;;;;;;20.67;27.61;100883.05;103406;1288;61451;-79
2024/01/12 03:52:58;;;;;;;14.40;10.40;;;;;;;20.68;27.52;100885.38;103403;1288;62573;-79
2024/01/12 03:55:23;;;;;;;13.80;10.60;;;;;;;20.68;27.44;100888.58;103647;1283;61384;-78
2024/01/12 03:57:50;;;;;;;13.90;10.50;;;;;;;20.68;27.45;100891.76;103630;1285;61378;-80
2024/01/12 04:00:17;;;;;;;15.60;10.70;;;;;;;20.68;27.58;100893.90;103166;1286;61487;-78
2024/01/12 04:02:42;;;;;;;14.40;10.50;;;;;;;20.68;27.54;100895.16;102723;1286;61884;-79
2024/01/12 04:05:09;;;;;;;15.30;10.90;;;;;;;20.68;27.55;100898.37;103108;1291;62087;-78
2024/01/12 04:07:35;;;;;;;16.20;10.80;;;;;;;20.69;27.48;100900.50;103193;1291;61484;-78
2024/01/12 04:10:01;;;;;;;17.70;10.90;;;;;;;20.69;27.45;100910.30;103168;1286;62519;-79
2024/01/12 04:12:27;;;;;;;16.20;11.10;;;;;;;20.69;27.50;100916.56;102758;1292;61488;-78
2024/01/12 04:14:53;;;;;;;15.60;10.90;;;;;;;20.70;27.44;100915.96;103105;1290;61490;-78
2024/01/12 04:17:19;;;;;;;16.20;11.60;;;;;;;20.69;27.55;100924.77;103128;1292;62879;-79
2024/01/12 04:19:44;;;;;;;16.10;11.00;;;;;;;20.70;27.51;100932.08;103174;1302;62431;-78
2024/01/12 04:22:10;;;;;;;15.40;10.60;;;;;;;20.70;27.62;100935.81;103159;1291;61318;-78
2024/01/12 04:24:36;;;;;;;16.90;11.80;;;;;;;20.70;27.39;100936.71;103027;1295;62403;-79
2024/01/12 04:27:02;;;;;;;15.10;11.10;;;;;;;20.71;27.40;100935.96;103145;1290;61380;-80
2024/01/12 04:29:28;;;;;;;17.10;11.70;;;;;;;20.71;27.36;100938.83;103166;1291;62478;-78
2024/01/12 04:31:54;;;;;;;15.30;10.80;;;;;;;20.70;27.26;100940.11;103273;1289;61372;-80
2024/01/12 04:34:20;;;;;;;16.00;11.20;;;;;;;20.71;27.36;100947.04;103574;1288;61391;-80
2024/01/12 04:36:46;;;;;;;15.80;11.70;;;;;;;20.71;27.25;100946.14;103578;1286;62552;-78
2024/01/12 04:39:12;;;;;;;16.10;11.10;;;;;;;20.71;27.34;100946.14;103445;1286;62283;-78
2024/01/12 04:41:38;;;;;;;15.50;11.00;;;;;;;20.71;27.06;100948.84;103365;1288;61953;-78
2024/01/12 04:44:04;;;;;;;16.20;11.50;;;;;;;20.70;27.13;100949.40;103410;1288;62452;-79
2024/01/12 04:46:29;;;;;;;17.60;10.80;;;;;;;20.70;27.21;100957.26;103189;1291;61384;-79
2024/01/12 04:48:55;;;;;;;16.10;11.30;;;;;;;20.69;27.32;100957.14;103655;1289;62730;-79
2024/01/12 04:51:21;;;;;;;17.70;11.60;;;;;;;20.69;27.07;100956.11;103616;1285;62518;-81
2024/01/12 04:53:47;;;;;;;17.70;12.10;;;;;;;20.68;26.88;100959.55;103676;1285;61836;-77
2024/01/12 04:56:13;;;;;;;20.60;13.10;;;;;;;20.67;26.91;100965.55;103340;1288;61364;-78
2024/01/12 04:58:40;;;;;;;19.60;12.90;;;;;;;20.64;26.85;100968.77;103642;1292;62666;-77
2024/01/12 05:01:06;;;;;;;19.50;13.00;;;;;;;20.60;26.62;100973.63;103358;1288;61304;-79
2024/01/12 05:03:31;;;;;;;22.30;13.50;;;;;;;20.57;26.50;100972.93;103617;1288;62604;-79
2024/01/12 05:05:57;;;;;;;21.10;14.20;;;;;;;20.54;26.48;100972.23;103305;1288;61386;-80
2024/01/12 05:08:23;;;;;;;21.50;14.40;;;;;;;20.51;26.38;100972.45;103609;1285;61291;-80
2024/01/12 05:10:49;;;;;;;23.10;14.60;;;;;;;20.49;26.20;100971.38;103780;1283;61383;-77
2024/01/12 05:13:14;;;;;;;23.90;15.40;;;;;;;20.47;26.21;100975.98;103787;1286;61350;-76
2024/01/12 05:15:40;;;;;;;27.30;16.10;;;;;;;20.44;25.96;100977.73;103582;1286;61345;-77
2024/01/12 05:18:06;;;;;;;23.90;15.60;;;;;;;20.41;25.98;100979.36;103723;1288;61710;-77
2024/01/12 05:20:33;;;;;;;24.30;15.80;;;;;;;20.39;25.75;100977.20;104105;1286;61291;-77
2024/01/12 05:23:00;;;;;;;23.90;16.00;;;;;;;20.37;25.53;100981.39;103823;1284;74590;-78
2024/01/12 05:25:25;;;;;;;24.60;15.40;;;;;;;20.36;25.62;100982.74;104022;1286;61388;-78
2024/01/12 05:27:51;;;;;;;24.30;16.60;;;;;;;20.35;25.48;100988.17;104145;1284;61377;-79
2024/01/12 05:30:17;;;;;;;26.90;15.20;;;;;;;20.33;25.29;100990.45;103790;1284;61388;-80
2024/01/12 05:32:43;;;;;;;22.60;13.80;;;;;;;20.31;25.17;100997.56;103853;1286;61377;-77
2024/01/12 05:35:09;;;;;;;27.50;13.30;;;;;;;20.32;25.58;100997.15;103857;1286;61384;-78
2024/01/12 05:37:35;;;;;;;21.80;13.10;;;;;;;20.33;25.51;101003.64;104092;1281;62045;-78
2024/01/12 05:40:00;;;;;;;20.50;13.30;;;;;;;20.35;25.59;101016.73;103815;1288;62502;-78
2024/01/12 05:42:26;;;;;;;23.90;14.40;;;;;;;20.37;25.47;101009.34;103823;1290;61505;-78
2024/01/12 05:44:52;;;;;;;28.50;14.30;;;;;;;20.37;25.37;101009.11;103698;1286;62761;-80
2024/01/12 05:47:17;;;;;;;20.30;12.90;;;;;;;20.37;25.39;101003.77;103546;1283;61330;-79
2024/01/12 05:49:43;;;;;;;23.90;14.10;;;;;;;20.37;25.33;101005.57;103877;1296;61409;-80
2024/01/12 05:52:09;;;;;;;24.10;14.40;;;;;;;20.36;25.27;101002.25;103875;1285;62668;-79
2024/01/12 05:54:34;;;;;;;26.10;14.30;;;;;;;20.33;25.23;100996.18;104635;1285;72203;-79
2024/01/12 05:57:00;;;;;;;23.50;15.10;;;;;;;20.29;25.08;101002.33;104485;1283;61403;-79
2024/01/12 05:59:26;;;;;;;24.80;14.80;;;;;;;20.24;25.21;101013.50;104873;1282;61455;-80
2024/01/12 06:01:51;;;;;;;28.90;15.40;;;;;;;20.20;25.18;101025.40;105186;1284;63090;-80
2024/01/12 06:04:17;;;;;;;26.10;14.80;;;;;;;20.16;25.21;101027.63;105078;1292;59459;-78
2024/01/12 06:06:43;;;;;;;24.80;15.90;;;;;;;20.13;25.10;101029.98;104967;1283;61279;-79
2024/01/12 06:09:08;;;;;;;26.80;15.90;;;;;;;20.09;25.17;101035.74;104775;1286;74474;-80
2024/01/12 06:11:35;;;;;;;24.60;15.90;;;;;;;20.07;25.03;101041.75;104785;1283;61256;-79
2024/01/12 06:14:02;;;;;;;25.90;15.60;;;;;;;20.05;25.08;101046.72;104757;1283;59539;-81
2024/01/12 06:16:28;;;;;;;24.40;16.10;;;;;;;20.04;24.95;101050.20;104801;1286;73411;-79
2024/01/12 06:18:54;;;;;;;26.30;16.80;;;;;;;20.04;24.94;101055.57;105012;1283;61396;-79
2024/01/12 06:21:19;;;;;;;27.20;15.90;;;;;;;20.03;24.77;101061.67;104359;1286;61316;-80
2024/01/12 06:23:45;;;;;;;26.00;15.20;;;;;;;20.02;24.85;101065.48;105083;1286;61404;-80
2024/01/12 06:26:11;;;;;;;25.70;16.00;;;;;;;20.03;24.86;101064.70;105141;1286;61263;-80
2024/01/12 06:28:37;;;;;;;24.80;15.00;;;;;;;20.04;24.73;101063.42;104957;1283;61355;-79
2024/01/12 06:31:03;;;;;;;26.60;15.70;;;;;;;20.03;24.91;101063.80;105053;1283;75485;-79
2024/01/12 06:33:31;;;;;;;25.50;16.30;;;;;;;20.03;24.84;101059.91;104899;1282;61272;-79
2024/01/12 06:35:57;;;;;;;33.70;16.80;;;;;;;20.04;24.67;101061.29;104503;1283;59651;-78
2024/01/12 06:38:22;;;;;;;25.00;16.10;;;;;;;20.05;24.69;101066.73;104518;1283;61285;-79
2024/01/12 06:40:48;;;;;;;26.40;15.40;;;;;;;20.08;24.83;101072.81;104731;1285;61368;-79
2024/01/12 06:43:14;;;;;;;27.10;14.60;;;;;;;20.10;24.83;101070.69;104740;1281;61483;-79
2024/01/12 06:45:40;;;;;;;23.00;14.30;;;;;;;20.14;24.81;101066.75;104509;1283;61250;-81
2024/01/12 06:48:06;;;;;;;23.00;14.20;;;;;;;20.17;25.05;101072.62;104715;1282;64461;-79
2024/01/12 06:50:33;;;;;;;24.00;14.40;;;;;;;20.19;25.06;101075.68;104819;1282;61330;-83
2024/01/12 06:53:00;;;;;;;24.70;15.00;;;;;;;20.21;25.40;101075.89;104655;1281;61464;-81
2024/01/12 06:55:25;;;;;;;25.20;13.80;;;;;;;20.24;25.37;101081.47;104694;1283;61761;-81
2024/01/12 06:57:51;;;;;;;25.30;13.90;;;;;;;20.24;25.82;101088.59;104659;1283;61308;-80
2024/01/12 07:00:17;;;;;;;33.80;13.00;;;;;;;20.24;25.92;101091.83;104765;1287;73482;-81
2024/01/12 07:02:43;;;;;;;29.20;13.80;;;;;;;20.25;26.46;101091.52;104942;1283;61381;-80
2024/01/12 07:05:09;;;;;;;24.90;13.40;;;;;;;20.29;26.65;101091.20;104899;1283;61343;-79
2024/01/12 07:07:34;;;;;;;31.80;12.90;;;;;;;20.30;26.68;101093.04;105094;1283;61737;-79
2024/01/12 07:10:00;;;;;;;23.70;12.50;;;;;;;20.33;26.94;101095.73;104663;1285;61428;-78
2024/01/12 07:12:26;;;;;;;27.60;13.40;;;;;;;20.35;27.14;101100.25;104858;1283;61416;-79
2024/01/12 07:14:51;;;;;;;26.40;13.70;;;;;;;20.38;27.15;101103.63;105155;1284;61361;-78
2024/01/12 07:17:17;;;;;;;24.40;12.70;;;;;;;20.41;27.28;101103.82;105088;1283;58960;-79
2024/01/12 07:19:43;;;;;;;29.70;12.80;;;;;;;20.43;27.42;101104.88;104872;1283;61263;-80
2024/01/12 07:22:09;;;;;;;29.90;13.90;;;;;;;20.46;27.37;101105.80;105167;1285;61316;-79
2024/01/12 07:24:35;;;;;;;28.50;14.10;;;;;;;20.49;27.41;101113.16;104893;1283;61352;-79
2024/01/12 07:27:00;;;;;;;29.20;13.50;;;;;;;20.50;27.53;101116.98;104762;1282;61403;-79
2024/01/12 07:29:26;;;;;;;24.00;13.80;;;;;;;20.52;27.50;101126.33;104571;1286;61406;-79
2024/01/12 07:31:52;;;;;;;25.80;13.40;;;;;;;20.53;27.56;101122.35;104687;1283;61243;-79
2024/01/12 07:34:17;;;;;;;26.90;14.30;;;;;;;20.54;27.47;101129.61;104824;1285;61252;-77
2024/01/12 07:36:44;;;;;;;33.70;14.50;;;;;;;20.56;27.58;101136.28;104860;1283;61390;-80
2024/01/12 07:39:10;;;;;;;22.90;13.60;;;;;;;20.58;27.48;101138.84;104077;1283;700660;-78
2024/01/12 07:41:36;;;;;;;22.90;13.40;;;;;;;20.59;27.64;101141.65;105023;1282;61368;-80
2024/01/12 07:44:01;;;;;;;26.40;13.00;;;;;;;20.59;27.69;101146.41;105059;1282;61265;-79
2024/01/12 07:46:28;;;;;;;29.00;12.80;;;;;;;20.62;27.85;101148.80;104824;1288;61355;-79
2024/01/12 07:48:56;;;;;;;23.30;13.70;;;;;;;20.62;27.83;101150.39;104763;1281;74168;-79
2024/01/12 07:51:22;;;;;;;24.80;14.20;;;;;;;20.64;27.85;101149.91;104757;1283;61279;-78
2024/01/12 07:53:48;;;;;;;32.80;14.10;;;;;;;20.66;27.83;101152.66;104820;1283;61339;-80
2024/01/12 07:56:13;;;;;;;33.20;12.90;;;;;;;20.66;28.06;101162.50;104958;1280;61990;-80
2024/01/12 07:58:39;;;;;;;28.20;13.40;;;;;;;20.65;28.26;101166.84;105117;1285;61372;-79
2024/01/12 08:01:05;;;;;;;33.90;13.60;;;;;;;20.64;28.32;101171.91;104791;1283;59458;-78
2024/01/12 08:03:32;;;;;;;39.80;13.80;;;;;;;20.63;28.47;101173.73;105090;1283;61473;-79
2024/01/12 08:05:59;;;;;;;30.60;14.00;;;;;;;20.64;28.53;101178.52;104773;1283;60174;-78
2024/01/12 08:08:25;;;;;;;27.10;13.40;;;;;;;20.66;28.75;101183.06;104677;1281;72728;-79
2024/01/12 08:10:51;;;;;;;30.50;13.80;;;;;;;20.68;28.84;101187.59;104641;1283;61401;-78
2024/01/12 08:13:17;;;;;;;34.60;14.00;;;;;;;20.70;28.81;101189.07;104468;1281;62497;-79
2024/01/12 08:15:42;;;;;;;30.10;13.30;;;;;;;20.72;28.92;101193.59;105078;1282;61973;-79
2024/01/12 08:18:08;;;;;;;26.20;13.10;;;;;;;20.75;28.97;101197.39;104634;1283;61343;-80
2024/01/12 08:20:34;;;;;;;28.20;13.70;;;;;;;20.77;29.20;101201.88;104696;1281;61397;-80
2024/01/12 08:22:59;;;;;;;34.10;13.70;;;;;;;20.80;29.35;101207.45;104751;1283;74506;-79
2024/01/12 08:25:25;;;;;;;33.40;13.90;;;;;;;20.85;29.70;101212.66;104763;1281;62092;-78
2024/01/12 08:27:51;;;;;;;34.00;13.20;;;;;;;20.89;29.93;101214.70;104909;1281;60588;-80
2024/01/12 08:30:17;;;;;;;31.50;13.60;;;;;;;20.91;29.78;101213.88;105213;1283;62170;-78
2024/01/12 08:32:43;;;;;;;22.60;13.20;;;;;;;20.92;29.83;101217.75;104698;1283;62244;-78
2024/01/12 08:35:08;;;;;;;33.30;13.30;;;;;;;20.92;29.55;101223.45;104794;1283;60442;-79
2024/01/12 08:37:34;;;;;;;24.40;12.40;;;;;;;20.92;29.74;101222.73;104635;1283;62069;-78
2024/01/12 08:39:59;;;;;;;26.30;13.00;;;;;;;20.93;29.59;101221.61;104703;1282;62193;-78
2024/01/12 08:42:25;;;;;;;25.50;13.30;;;;;;;20.94;29.60;101221.89;104699;1283;62123;-79
2024/01/12 08:44:51;;;;;;;24.70;12.90;;;;;;;20.94;29.58;101221.54;104775;1283;62383;-79
2024/01/12 08:47:19;;;;;;;36.10;13.20;;;;;;;20.96;29.85;101225.54;104595;1283;61493;-78
2024/01/12 08:49:45;;;;;;;39.10;12.60;;;;;;;21.01;30.39;101226.80;104565;1283;62226;-78
2024/01/12 08:52:11;;;;;;;31.00;13.20;;;;;;;21.06;30.90;101224.89;104453;1283;62257;-80
2024/01/12 08:54:36;;;;;;;27.70;13.10;;;;;;;21.08;30.77;101229.23;104742;1282;62143;-80
2024/01/12 08:57:02;;;;;;;29.30;15.60;;;;;;;21.05;30.52;101235.69;105264;1282;62226;-79
2024/01/12 08:59:28;;;;;;;29.80;16.00;;;;;;;20.96;30.34;101238.05;105212;1282;62095;-80
2024/01/12 09:01:54;;;;;;;33.90;17.50;;;;;;;20.76;30.04;101243.63;104935;1289;61098;-79
2024/01/12 09:04:20;;;;;;;37.10;17.00;;;;;;;20.57;29.93;101241.19;105154;1282;62181;-80
2024/01/12 09:06:45;;;;;;;33.50;17.00;;;;;;;20.48;29.85;101240.11;105377;1283;62188;-79
2024/01/12 09:09:11;;;;;;;38.40;17.00;;;;;;;20.42;29.74;101240.65;105027;1283;62124;-79
2024/01/12 09:11:37;;;;;;;30.20;17.00;;;;;;;20.37;29.51;101245.80;104456;1280;62162;-81
2024/01/12 09:14:02;;;;;;;31.30;17.30;;;;;;;20.33;29.39;101246.95;104855;1283;63808;-80
2024/01/12 09:16:28;;;;;;;36.50;17.40;;;;;;;20.29;29.16;101248.63;104786;1283;63357;-80
2024/01/12 09:18:53;;;;;;;29.30;16.90;;;;;;;20.26;29.07;101247.91;104943;1283;62183;-79
2024/01/12 09:21:19;;;;;;;29.80;17.90;;;;;;;20.24;28.92;101248.58;104770;1283;62290;-80
2024/01/12 09:23:45;;;;;;;28.20;17.10;;;;;;;20.24;28.71;101247.67;104996;1283;62076;-80
2024/01/12 09:26:12;;;;;;;28.30;16.20;;;;;;;20.26;28.51;101258.83;105553;1282;62085;-81
2024/01/12 09:28:38;;;;;;;41.90;14.50;;;;;;;20.28;28.62;101264.05;105106;1283;62098;-79
2024/01/12 09:31:04;;;;;;;30.60;15.30;;;;;;;20.36;29.61;101266.26;105229;1283;77177;-80
2024/01/12 09:33:30;;;;;;;26.80;16.10;;;;;;;20.40;29.71;101263.68;105029;1283;62069;-79
2024/01/12 09:35:55;;;;;;;29.50;15.00;;;;;;;20.42;29.26;101263.20;105161;1281;60155;-81
2024/01/12 09:38:21;;;;;;;29.70;15.20;;;;;;;20.43;29.20;101264.23;105108;1283;62069;-82
2024/01/12 09:40:47;;;;;;;27.80;14.20;;;;;;;20.41;29.07;101265.58;105162;1283;62143;-82
2024/01/12 09:43:14;;;;;;;24.30;14.80;;;;;;;20.39;28.73;101266.75;105669;1285;62270;-81
2024/01/12 09:45:44;;;;;;;26.40;15.00;;;;;;;20.38;28.58;101268.45;105196;1283;62070;-80
2024/01/12 09:48:10;;;;;;;24.50;14.90;;;;;;;20.35;28.47;101271.99;105058;1283;72528;-79
2024/01/12 09:50:35;;;;;;;29.50;15.80;;;;;;;20.33;28.04;101272.90;105216;1282;61267;-80
2024/01/12 09:53:02;;;;;;;27.00;15.00;;;;;;;20.28;28.24;101272.27;105016;1281;62042;-79
2024/01/12 09:55:28;;;;;;;24.40;14.70;;;;;;;20.16;27.88;101275.31;105256;1283;60221;-77
2024/01/12 09:57:54;;;;;;;33.10;17.30;;;;;;;20.05;28.09;101284.89;104630;1282;66330;-80
2024/01/12 10:00:20;;;;;;;32.10;15.50;;;;;;;19.82;27.61;101284.45;105598;1283;60621;-79
2024/01/12 10:02:45;;;;;;;29.60;15.50;;;;;;;19.65;28.17;101291.13;105674;1282;61711;-79
2024/01/12 10:05:11;;;;;;;30.50;15.70;;;;;;;19.63;28.28;101293.73;105707;1283;61318;-80
2024/01/12 10:07:37;;;;;;;28.50;15.40;;;;;;;19.55;28.02;101292.73;105396;1282;61303;-80
2024/01/12 10:10:05;;;;;;;32.70;16.60;;;;;;;19.46;28.10;101297.18;105596;1283;73534;-80
2024/01/12 10:12:31;;;;;;;27.40;15.70;;;;;;;19.36;27.69;101299.14;105444;1286;75063;-80
2024/01/12 10:15:00;;;;;;;32.10;14.80;;;;;;;19.32;27.82;101294.73;105245;1285;62657;-78
2024/01/12 10:17:27;;;;;;;29.40;15.50;;;;;;;19.35;28.02;101295.11;104811;1286;61026;-78
2024/01/12 10:19:52;;;;;;;40.80;15.60;;;;;;;19.41;28.17;101297.33;104797;1286;62224;-77
2024/01/12 10:22:18;;;;;;;27.70;15.20;;;;;;;19.47;28.00;101299.48;104814;1289;60427;-78
2024/01/12 10:24:44;;;;;;;28.40;15.10;;;;;;;19.54;28.18;101302.80;104740;1286;62114;-78
2024/01/12 10:27:09;;;;;;;29.00;13.70;;;;;;;19.61;28.00;101309.21;104641;1285;61545;-80
2024/01/12 10:29:38;;;;;;;29.60;13.90;;;;;;;19.67;28.00;101308.33;104678;1287;62124;-78
2024/01/12 10:32:04;;;;;;;30.90;15.10;;;;;;;19.73;28.14;101307.05;104625;1285;72712;-78
2024/01/12 10:34:33;;;;;;;27.40;13.50;;;;;;;19.79;28.29;101301.17;104639;1286;75390;-79
2024/01/12 10:36:59;;;;;;;30.00;15.40;;;;;;;19.84;28.27;101303.96;104405;1285;62259;-78
2024/01/12 10:39:26;;;;;;;28.50;15.50;;;;;;;19.87;28.08;101301.33;104388;1288;62127;-78
2024/01/12 10:41:52;;;;;;;24.40;14.40;;;;;;;19.89;28.06;101300.30;104289;1288;72562;-79
2024/01/12 10:44:18;;;;;;;27.30;15.30;;;;;;;19.89;28.07;101300.80;104630;1285;62325;-79
2024/01/12 10:46:45;;;;;;;26.10;15.10;;;;;;;19.91;27.89;101299.83;104566;1285;60681;-79
2024/01/12 10:49:20;;;;;;;23.90;14.00;;;;;;;19.89;27.70;101300.45;104561;1288;62101;-79
2024/01/12 10:51:51;;;;;;;23.70;14.50;;;;;;;19.89;28.05;101304.58;104988;1282;73590;-80
2024/01/12 10:54:25;;;;;;;27.00;14.70;;;;;;;19.91;28.04;101304.80;105224;1284;75197;-81
2024/01/12 10:56:51;;;;;;;24.30;14.10;;;;;;;19.91;27.99;101302.84;106530;1283;60290;-80
2024/01/12 10:59:17;;;;;;;26.70;15.60;;;;;;;19.91;28.05;101299.28;106420;1282;60378;-80